sensor_id;sensor_type;location;lat;lon;timestamp;pressure;altitude;pressure_sealevel;temperature;humidity
14612;BME280;7392;52.078;11.650;2022-11-20T00:01:04;100573.56;;;-4.76;100.00
14612;BME280;7392;52.078;11.650;2022-11-20T00:03:32;100564.97;;;-4.75;100.00
14612;BME280;7392;52.078;11.650;2022-11-20T00:06:00;100559.78;;;-4.75;100.00
14612;BME280;7392;52.078;11.650;2022-11-20T00:08:28;100564.16;;;-4.74;100.00
14612;BME280;7392;52.078;11.650;2022-11-20T00:10:56;100558.97;;;-4.74;100.00
14612;BME280;7392;52.078;11.650;2022-11-20T00:13:25;100561.75;;;-4.71;100.00
14612;BME280;7392;52.078;11.650;2022-11-20T00:15:56;100560.13;;;-4.69;100.00
14612;BME280;7392;52.078;11.650;2022-11-20T00:18:24;100554.94;;;-4.69;100.00
14612;BME280;7392;52.078;11.650;2022-11-20T00:20:52;100559.41;;;-4.66;100.00
14612;BME280;7392;52.078;11.650;2022-11-20T00:23:20;100548.31;;;-4.64;100.00
14612;BME280;7392;52.078;11.650;2022-11-20T00:25:48;100547.59;;;-4.61;100.00
14612;BME280;7392;52.078;11.650;2022-11-20T00:28:16;100546.00;;;-4.59;100.00
14612;BME280;7392;52.078;11.650;2022-11-20T00:30:45;100545.25;;;-4.57;100.00
14612;BME280;7392;52.078;11.650;2022-11-20T00:33:13;100552.41;;;-4.53;100.00
14612;BME280;7392;52.078;11.650;2022-11-20T00:35:41;100548.28;;;-4.49;100.00
14612;BME280;7392;52.078;11.650;2022-11-20T00:38:08;100551.13;;;-4.44;100.00
14612;BME280;7392;52.078;11.650;2022-11-20T00:40:36;100549.75;;;-4.38;100.00
14612;BME280;7392;52.078;11.650;2022-11-20T00:43:04;100543.19;;;-4.31;100.00
14612;BME280;7392;52.078;11.650;2022-11-20T00:45:32;100536.56;;;-4.26;100.00
14612;BME280;7392;52.078;11.650;2022-11-20T00:48:01;100534.41;;;-4.18;100.00
14612;BME280;7392;52.078;11.650;2022-11-20T00:50:28;100533.66;;;-4.16;100.00
14612;BME280;7392;52.078;11.650;2022-11-20T00:52:56;100540.84;;;-4.10;100.00
14612;BME280;7392;52.078;11.650;2022-11-20T00:55:24;100532.53;;;-4.04;100.00
14612;BME280;7392;52.078;11.650;2022-11-20T00:57:52;100528.38;;;-4.01;100.00
14612;BME280;7392;52.078;11.650;2022-11-20T01:00:20;100525.13;;;-3.97;100.00
14612;BME280;7392;52.078;11.650;2022-11-20T01:02:47;100521.00;;;-3.93;100.00
14612;BME280;7392;52.078;11.650;2022-11-20T01:05:16;100528.94;;;-3.90;100.00
14612;BME280;7392;52.078;11.650;2022-11-20T01:07:44;100522.22;;;-3.86;100.00
14612;BME280;7392;52.078;11.650;2022-11-20T01:10:12;100527.66;;;-3.82;100.00
14612;BME280;7392;52.078;11.650;2022-11-20T01:12:40;100528.69;;;-3.78;100.00
14612;BME280;7392;52.078;11.650;2022-11-20T01:15:08;100533.25;;;-3.74;100.00
14612;BME280;7392;52.078;11.650;2022-11-20T01:17:36;100523.91;;;-3.70;100.00
14612;BME280;7392;52.078;11.650;2022-11-20T01:20:05;100517.19;;;-3.67;100.00
14612;BME280;7392;52.078;11.650;2022-11-20T01:22:34;100513.81;;;-3.64;100.00
14612;BME280;7392;52.078;11.650;2022-11-20T01:25:02;100520.06;;;-3.61;100.00
14612;BME280;7392;52.078;11.650;2022-11-20T01:27:30;100517.63;;;-3.58;100.00
14612;BME280;7392;52.078;11.650;2022-11-20T01:29:58;100520.38;;;-3.54;100.00
14612;BME280;7392;52.078;11.650;2022-11-20T01:32:27;100516.16;;;-3.52;100.00
14612;BME280;7392;52.078;11.650;2022-11-20T01:34:54;100508.53;;;-3.49;100.00
14612;BME280;7392;52.078;11.650;2022-11-20T01:37:22;100514.78;;;-3.46;100.00
14612;BME280;7392;52.078;11.650;2022-11-20T01:39:51;100516.56;;;-3.45;100.00
14612;BME280;7392;52.078;11.650;2022-11-20T01:42:19;100514.03;;;-3.43;100.00
14612;BME280;7392;52.078;11.650;2022-11-20T01:48:14;100508.84;;;-3.43;100.00
14612;BME280;7392;52.078;11.650;2022-11-20T01:50:42;100515.91;;;-3.41;100.00
14612;BME280;7392;52.078;11.650;2022-11-20T01:53:13;100505.50;;;-3.41;100.00
14612;BME280;7392;52.078;11.650;2022-11-20T01:55:45;100500.31;;;-3.41;100.00
14612;BME280;7392;52.078;11.650;2022-11-20T01:58:15;100497.88;;;-3.38;100.00
14612;BME280;7392;52.078;11.650;2022-11-20T02:00:44;100504.78;;;-3.38;100.00
14612;BME280;7392;52.078;11.650;2022-11-20T02:03:14;100494.38;;;-3.38;100.00
14612;BME280;7392;52.078;11.650;2022-11-20T02:05:46;100496.16;;;-3.37;100.00
14612;BME280;7392;52.078;11.650;2022-11-20T02:08:17;100495.34;;;-3.36;100.00
14612;BME280;7392;52.078;11.650;2022-11-20T02:10:46;100494.50;;;-3.35;100.00
14612;BME280;7392;52.078;11.650;2022-11-20T02:13:15;100488.44;;;-3.35;100.00
14612;BME280;7392;52.078;11.650;2022-11-20T02:16:15;100487.63;;;-3.34;100.00
14612;BME280;7392;52.078;11.650;2022-11-20T02:18:44;100482.38;;;-3.36;100.00
14612;BME280;7392;52.078;11.650;2022-11-20T02:21:23;100482.28;;;-3.38;100.00
14612;BME280;7392;52.078;11.650;2022-11-20T02:24:05;100483.00;;;-3.40;100.00
14612;BME280;7392;52.078;11.650;2022-11-20T02:26:38;100479.38;;;-3.44;100.00
14612;BME280;7392;52.078;11.650;2022-11-20T02:29:08;100480.13;;;-3.46;100.00
14612;BME280;7392;52.078;11.650;2022-11-20T02:31:37;100484.28;;;-3.50;100.00
14612;BME280;7392;52.078;11.650;2022-11-20T02:34:05;100478.84;;;-3.54;100.00
14612;BME280;7392;52.078;11.650;2022-11-20T02:36:34;100482.25;;;-3.55;100.00
14612;BME280;7392;52.078;11.650;2022-11-20T02:39:04;100485.50;;;-3.60;100.00
14612;BME280;7392;52.078;11.650;2022-11-20T02:41:34;100487.22;;;-3.60;100.00
14612;BME280;7392;52.078;11.650;2022-11-20T02:44:03;100479.28;;;-3.63;100.00
14612;BME280;7392;52.078;11.650;2022-11-20T02:46:31;100478.16;;;-3.68;100.00
14612;BME280;7392;52.078;11.650;2022-11-20T02:49:01;100471.75;;;-3.75;100.00
14612;BME280;7392;52.078;11.650;2022-11-20T02:51:28;100468.91;;;-3.80;100.00
14612;BME280;7392;52.078;11.650;2022-11-20T02:53:57;100463.56;;;-3.83;100.00
14612;BME280;7392;52.078;11.650;2022-11-20T02:56:26;100466.97;;;-3.84;100.00
14612;BME280;7392;52.078;11.650;2022-11-20T02:58:54;100472.81;;;-3.88;100.00
14612;BME280;7392;52.078;11.650;2022-11-20T03:01:22;100469.16;;;-3.91;100.00
14612;BME280;7392;52.078;11.650;2022-11-20T03:03:50;100469.91;;;-3.94;100.00
14612;BME280;7392;52.078;11.650;2022-11-20T03:06:20;100466.19;;;-3.99;100.00
14612;BME280;7392;52.078;11.650;2022-11-20T03:08:49;100463.50;;;-4.01;100.00
14612;BME280;7392;52.078;11.650;2022-11-20T03:11:17;100459.97;;;-4.03;100.00
14612;BME280;7392;52.078;11.650;2022-11-20T03:13:46;100461.56;;;-4.05;100.00
14612;BME280;7392;52.078;11.650;2022-11-20T03:16:17;100457.81;;;-4.10;100.00
14612;BME280;7392;52.078;11.650;2022-11-20T03:18:45;100453.31;;;-4.14;100.00
14612;BME280;7392;52.078;11.650;2022-11-20T03:21:14;100459.16;;;-4.18;100.00
14612;BME280;7392;52.078;11.650;2022-11-20T03:23:42;100455.34;;;-4.25;100.00
14612;BME280;7392;52.078;11.650;2022-11-20T03:26:12;100460.19;;;-4.31;100.00
14612;BME280;7392;52.078;11.650;2022-11-20T03:28:41;100449.66;;;-4.34;100.00
14612;BME280;7392;52.078;11.650;2022-11-20T03:31:11;100458.00;;;-4.40;100.00
14612;BME280;7392;52.078;11.650;2022-11-20T03:33:40;100451.59;;;-4.46;100.00
14612;BME280;7392;52.078;11.650;2022-11-20T03:36:11;100457.44;;;-4.51;100.00
14612;BME280;7392;52.078;11.650;2022-11-20T03:38:39;100457.28;;;-4.54;100.00
14612;BME280;7392;52.078;11.650;2022-11-20T03:41:08;100456.13;;;-4.59;100.00
14612;BME280;7392;52.078;11.650;2022-11-20T03:43:36;100455.97;;;-4.62;100.00
14612;BME280;7392;52.078;11.650;2022-11-20T03:46:05;100449.81;;;-4.64;100.00
14612;BME280;7392;52.078;11.650;2022-11-20T03:48:34;100451.44;;;-4.66;100.00
14612;BME280;7392;52.078;11.650;2022-11-20T03:51:09;100451.34;;;-4.67;100.00
14612;BME280;7392;52.078;11.650;2022-11-20T03:53:38;100447.03;;;-4.67;100.00
14612;BME280;7392;52.078;11.650;2022-11-20T03:56:06;100444.38;;;-4.68;100.00
14612;BME280;7392;52.078;11.650;2022-11-20T03:58:36;100446.09;;;-4.69;100.00
14612;BME280;7392;52.078;11.650;2022-11-20T04:01:05;100434.84;;;-4.70;100.00
14612;BME280;7392;52.078;11.650;2022-11-20T04:03:35;100434.75;;;-4.71;100.00
14612;BME280;7392;52.078;11.650;2022-11-20T04:06:05;100426.06;;;-4.72;100.00
14612;BME280;7392;52.078;11.650;2022-11-20T04:08:33;100432.94;;;-4.72;100.00
14612;BME280;7392;52.078;11.650;2022-11-20T04:11:11;100427.69;;;-4.74;100.00
14612;BME280;7392;52.078;11.650;2022-11-20T04:13:39;100428.50;;;-4.75;100.00
14612;BME280;7392;52.078;11.650;2022-11-20T04:16:08;100425.91;;;-4.75;100.00
14612;BME280;7392;52.078;11.650;2022-11-20T04:18:37;100428.50;;;-4.75;100.00
14612;BME280;7392;52.078;11.650;2022-11-20T04:21:06;100436.28;;;-4.75;100.00
14612;BME280;7392;52.078;11.650;2022-11-20T04:23:34;100435.38;;;-4.75;100.00
14612;BME280;7392;52.078;11.650;2022-11-20T04:26:02;100420.66;;;-4.76;100.00
14612;BME280;7392;52.078;11.650;2022-11-20T04:28:30;100425.84;;;-4.76;100.00
14612;BME280;7392;52.078;11.650;2022-11-20T04:31:02;100414.47;;;-4.78;100.00
14612;BME280;7392;52.078;11.650;2022-11-20T04:33:31;100417.06;;;-4.78;100.00
14612;BME280;7392;52.078;11.650;2022-11-20T04:36:03;100419.59;;;-4.80;100.00
14612;BME280;7392;52.078;11.650;2022-11-20T04:38:31;100423.84;;;-4.80;100.00
14612;BME280;7392;52.078;11.650;2022-11-20T04:41:00;100421.25;;;-4.80;100.00
14612;BME280;7392;52.078;11.650;2022-11-20T04:43:28;100423.84;;;-4.80;100.00
14612;BME280;7392;52.078;11.650;2022-11-20T04:45:57;100421.25;;;-4.80;100.00
14612;BME280;7392;52.078;11.650;2022-11-20T04:48:29;100416.91;;;-4.81;100.00
14612;BME280;7392;52.078;11.650;2022-11-20T04:50:57;100419.41;;;-4.83;100.00
14612;BME280;7392;52.078;11.650;2022-11-20T04:53:26;100422.09;;;-4.81;100.00
14612;BME280;7392;52.078;11.650;2022-11-20T04:55:59;100416.09;;;-4.80;100.00
14612;BME280;7392;52.078;11.650;2022-11-20T04:58:27;100421.25;;;-4.80;100.00
14612;BME280;7392;52.078;11.650;2022-11-20T05:01:01;100416.16;;;-4.79;100.00
14612;BME280;7392;52.078;11.650;2022-11-20T05:03:30;100411.88;;;-4.78;100.00
14612;BME280;7392;52.078;11.650;2022-11-20T05:06:00;100411.06;;;-4.77;100.00
14612;BME280;7392;52.078;11.650;2022-11-20T05:08:29;100408.47;;;-4.77;100.00
14612;BME280;7392;52.078;11.650;2022-11-20T05:11:01;100410.28;;;-4.76;100.00
14612;BME280;7392;52.078;11.650;2022-11-20T05:13:30;100404.19;;;-4.77;100.00
14612;BME280;7392;52.078;11.650;2022-11-20T05:16:01;100410.28;;;-4.76;100.00
14612;BME280;7392;52.078;11.650;2022-11-20T05:18:29;100405.19;;;-4.75;100.00
14612;BME280;7392;52.078;11.650;2022-11-20T05:20:57;100405.19;;;-4.75;100.00
14612;BME280;7392;52.078;11.650;2022-11-20T05:23:25;100400.00;;;-4.75;100.00
14612;BME280;7392;52.078;11.650;2022-11-20T05:25:56;100397.41;;;-4.75;100.00
14612;BME280;7392;52.078;11.650;2022-11-20T05:28:26;100402.59;;;-4.75;100.00
14612;BME280;7392;52.078;11.650;2022-11-20T05:30:54;100408.66;;;-4.74;100.00
14612;BME280;7392;52.078;11.650;2022-11-20T05:33:22;100400.78;;;-4.76;100.00
14612;BME280;7392;52.078;11.650;2022-11-20T05:35:50;100399.00;;;-4.77;100.00
14612;BME280;7392;52.078;11.650;2022-11-20T05:38:18;100395.44;;;-4.79;100.00
14612;BME280;7392;52.078;11.650;2022-11-20T05:40:45;100396.28;;;-4.80;100.00
14612;BME280;7392;52.078;11.650;2022-11-20T05:43:15;100391.00;;;-4.81;100.00
14612;BME280;7392;52.078;11.650;2022-11-20T05:45:51;100381.34;;;-4.84;100.00
14612;BME280;7392;52.078;11.650;2022-11-20T05:48:19;100388.22;;;-4.84;100.00
14612;BME280;7392;52.078;11.650;2022-11-20T05:50:47;100376.91;;;-4.86;100.00
14612;BME280;7392;52.078;11.650;2022-11-20T05:53:15;100391.44;;;-4.89;100.00
14612;BME280;7392;52.078;11.650;2022-11-20T05:55:43;100393.06;;;-4.91;100.00
14612;BME280;7392;52.078;11.650;2022-11-20T05:58:10;100392.19;;;-4.91;100.00
14612;BME280;7392;52.078;11.650;2022-11-20T06:00:40;100379.31;;;-4.90;100.00
14612;BME280;7392;52.078;11.650;2022-11-20T06:03:07;100374.13;;;-4.90;100.00
14612;BME280;7392;52.078;11.650;2022-11-20T06:05:35;100375.03;;;-4.89;100.00
14612;BME280;7392;52.078;11.650;2022-11-20T06:08:03;100377.59;;;-4.89;100.00
14612;BME280;7392;52.078;11.650;2022-11-20T06:10:31;100383.63;;;-4.90;100.00
14612;BME280;7392;52.078;11.650;2022-11-20T06:12:59;100384.59;;;-4.88;100.00
14612;BME280;7392;52.078;11.650;2022-11-20T06:15:26;100376.72;;;-4.90;100.00
14612;BME280;7392;52.078;11.650;2022-11-20T06:17:55;100391.41;;;-4.90;100.00
14612;BME280;7392;52.078;11.650;2022-11-20T06:20:25;100387.00;;;-4.91;100.00
14612;BME280;7392;52.078;11.650;2022-11-20T06:22:53;100390.47;;;-4.91;100.00
14612;BME280;7392;52.078;11.650;2022-11-20T06:25:21;100381.03;;;-4.90;100.00
14612;BME280;7392;52.078;11.650;2022-11-20T06:27:49;100382.72;;;-4.91;100.00
14612;BME280;7392;52.078;11.650;2022-11-20T06:30:17;100381.03;;;-4.90;100.00
14612;BME280;7392;52.078;11.650;2022-11-20T06:32:44;100377.53;;;-4.91;100.00
14612;BME280;7392;52.078;11.650;2022-11-20T06:35:14;100380.94;;;-4.92;100.00
14612;BME280;7392;52.078;11.650;2022-11-20T06:37:42;100378.34;;;-4.92;100.00
14612;BME280;7392;52.078;11.650;2022-11-20T06:40:10;100384.34;;;-4.93;100.00
14612;BME280;7392;52.078;11.650;2022-11-20T06:42:38;100385.13;;;-4.94;100.00
14612;BME280;7392;52.078;11.650;2022-11-20T06:45:07;100391.94;;;-4.96;100.00
14612;BME280;7392;52.078;11.650;2022-11-20T06:47:36;100385.00;;;-4.97;100.00
14612;BME280;7392;52.078;11.650;2022-11-20T06:50:04;100386.56;;;-4.99;100.00
14612;BME280;7392;52.078;11.650;2022-11-20T06:52:34;100385.59;;;-5.01;100.00
14612;BME280;7392;52.078;11.650;2022-11-20T06:55:08;100389.13;;;-5.00;100.00
14612;BME280;7392;52.078;11.650;2022-11-20T06:57:36;100382.78;;;-5.05;100.00
14612;BME280;7392;52.078;11.650;2022-11-20T07:00:05;100381.00;;;-5.07;100.00
14612;BME280;7392;52.078;11.650;2022-11-20T07:02:33;100379.09;;;-5.09;100.00
14612;BME280;7392;52.078;11.650;2022-11-20T07:05:01;100381.69;;;-5.09;100.00
14612;BME280;7392;52.078;11.650;2022-11-20T07:07:29;100378.16;;;-5.11;100.00
14612;BME280;7392;52.078;11.650;2022-11-20T07:09:58;100373.78;;;-5.12;100.00
14612;BME280;7392;52.078;11.650;2022-11-20T07:12:26;100383.16;;;-5.14;100.00
14612;BME280;7392;52.078;11.650;2022-11-20T07:14:54;100384.78;;;-5.16;100.00
14612;BME280;7392;52.078;11.650;2022-11-20T07:17:22;100382.19;;;-5.16;100.00
14612;BME280;7392;52.078;11.650;2022-11-20T07:19:49;100377.91;;;-5.16;100.00
14612;BME280;7392;52.078;11.650;2022-11-20T07:22:17;100383.00;;;-5.17;100.00
14612;BME280;7392;52.078;11.650;2022-11-20T07:24:48;100384.69;;;-5.18;100.00
14612;BME280;7392;52.078;11.650;2022-11-20T07:27:17;100377.75;;;-5.19;100.00
14612;BME280;7392;52.078;11.650;2022-11-20T07:29:44;100369.06;;;-5.19;100.00
14612;BME280;7392;52.078;11.650;2022-11-20T07:32:12;100372.47;;;-5.20;100.00
14612;BME280;7392;52.078;11.650;2022-11-20T07:34:40;100364.63;;;-5.22;100.00
14612;BME280;7392;52.078;11.650;2022-11-20T07:37:08;100361.94;;;-5.23;100.00
14612;BME280;7392;52.078;11.650;2022-11-20T07:39:36;100356.59;;;-5.27;100.00
14612;BME280;7392;52.078;11.650;2022-11-20T07:42:04;100354.91;;;-5.26;100.00
14612;BME280;7392;52.078;11.650;2022-11-20T07:44:33;100362.59;;;-5.28;100.00
14612;BME280;7392;52.078;11.650;2022-11-20T07:47:01;100352.22;;;-5.28;100.00
14612;BME280;7392;52.078;11.650;2022-11-20T07:49:29;100356.59;;;-5.27;100.00
14612;BME280;7392;52.078;11.650;2022-11-20T07:51:57;100357.41;;;-5.28;100.00
14612;BME280;7392;52.078;11.650;2022-11-20T07:54:30;100379.09;;;-5.26;100.00
14612;BME280;7392;52.078;11.650;2022-11-20T07:56:58;100396.47;;;-5.23;100.00
14612;BME280;7392;52.078;11.650;2022-11-20T07:59:25;100390.69;;;-5.19;100.00
14612;BME280;7392;52.078;11.650;2022-11-20T08:01:55;100381.47;;;-5.14;100.00
14612;BME280;7392;52.078;11.650;2022-11-20T08:04:22;100389.56;;;-5.08;100.00
14612;BME280;7392;52.078;11.650;2022-11-20T08:06:51;100383.09;;;-4.99;100.00
14612;BME280;7392;52.078;11.650;2022-11-20T08:09:19;100379.22;;;-4.91;100.00
14612;BME280;7392;52.078;11.650;2022-11-20T08:11:47;100371.94;;;-4.82;100.00
14612;BME280;7392;52.078;11.650;2022-11-20T08:14:33;100363.06;;;-4.71;100.00
14612;BME280;7392;52.078;11.650;2022-11-20T08:17:02;100368.72;;;-4.61;100.00
14612;BME280;7392;52.078;11.650;2022-11-20T08:19:30;100370.97;;;-4.51;100.00
14612;BME280;7392;52.078;11.650;2022-11-20T08:21:58;100369.03;;;-4.39;100.00
14612;BME280;7392;52.078;11.650;2022-11-20T08:24:25;100368.78;;;-4.27;100.00
14612;BME280;7392;52.078;11.650;2022-11-20T08:26:53;100371.91;;;-4.16;100.00
14612;BME280;7392;52.078;11.650;2022-11-20T08:29:21;100372.53;;;-4.04;100.00
14612;BME280;7392;52.078;11.650;2022-11-20T08:31:49;100373.97;;;-3.92;100.00
14612;BME280;7392;52.078;11.650;2022-11-20T08:34:18;100370.94;;;-3.84;100.00
14612;BME280;7392;52.078;11.650;2022-11-20T08:36:46;100367.09;;;-3.74;100.00
14612;BME280;7392;52.078;11.650;2022-11-20T08:39:14;100365.03;;;-3.63;100.00
14612;BME280;7392;52.078;11.650;2022-11-20T08:41:42;100363.03;;;-3.51;100.00
14612;BME280;7392;52.078;11.650;2022-11-20T08:44:10;100357.53;;;-3.39;100.00
14612;BME280;7392;52.078;11.650;2022-11-20T08:46:39;100365.00;;;-3.27;100.00
14612;BME280;7392;52.078;11.650;2022-11-20T08:49:09;100356.91;;;-3.15;100.00
14612;BME280;7392;52.078;11.650;2022-11-20T08:51:39;100354.72;;;-3.06;100.00
14612;BME280;7392;52.078;11.650;2022-11-20T08:54:08;100346.53;;;-2.96;100.00
14612;BME280;7392;52.078;11.650;2022-11-20T08:56:35;100350.44;;;-2.86;100.00
14612;BME280;7392;52.078;11.650;2022-11-20T08:59:03;100351.63;;;-2.79;100.00
14612;BME280;7392;52.078;11.650;2022-11-20T09:01:51;100358.13;;;-2.70;100.00
14612;BME280;7392;52.078;11.650;2022-11-20T09:04:19;100353.34;;;-2.60;100.00
14612;BME280;7392;52.078;11.650;2022-11-20T09:06:48;100358.94;;;-2.51;100.00
14612;BME280;7392;52.078;11.650;2022-11-20T09:09:17;100348.81;;;-2.45;100.00
14612;BME280;7392;52.078;11.650;2022-11-20T09:11:46;100347.50;;;-2.35;100.00
14612;BME280;7392;52.078;11.650;2022-11-20T09:14:14;100350.50;;;-2.26;100.00
14612;BME280;7392;52.078;11.650;2022-11-20T09:16:41;100345.63;;;-2.18;100.00
14612;BME280;7392;52.078;11.650;2022-11-20T09:19:09;100347.66;;;-2.11;100.00
14612;BME280;7392;52.078;11.650;2022-11-20T09:21:58;100349.84;;;-2.01;100.00
14612;BME280;7392;52.078;11.650;2022-11-20T09:24:26;100350.09;;;-1.95;100.00
14612;BME280;7392;52.078;11.650;2022-11-20T09:26:54;100350.34;;;-1.89;100.00
14612;BME280;7392;52.078;11.650;2022-11-20T09:29:22;100350.53;;;-1.84;100.00
14612;BME280;7392;52.078;11.650;2022-11-20T09:31:50;100340.31;;;-1.79;100.00
14612;BME280;7392;52.078;11.650;2022-11-20T09:34:17;100346.63;;;-1.74;100.00
14612;BME280;7392;52.078;11.650;2022-11-20T09:36:45;100342.41;;;-1.71;100.00
14612;BME280;7392;52.078;11.650;2022-11-20T09:39:14;100341.63;;;-1.68;100.00
14612;BME280;7392;52.078;11.650;2022-11-20T09:41:55;100346.97;;;-1.65;100.00
14612;BME280;7392;52.078;11.650;2022-11-20T09:44:39;100340.03;;;-1.64;100.00
14612;BME280;7392;52.078;11.650;2022-11-20T09:47:11;100325.31;;;-1.64;99.46
14612;BME280;7392;52.078;11.650;2022-11-20T09:49:56;100324.53;;;-1.61;99.49
14612;BME280;7392;52.078;11.650;2022-11-20T09:52:33;100324.59;;;-1.60;99.18
14612;BME280;7392;52.078;11.650;2022-11-20T09:55:10;100329.94;;;-1.57;98.83
14612;BME280;7392;52.078;11.650;2022-11-20T09:57:43;100319.66;;;-1.54;98.78
14612;BME280;7392;52.078;11.650;2022-11-20T10:00:14;100315.38;;;-1.52;98.03
14612;BME280;7392;52.078;11.650;2022-11-20T10:02:44;100314.53;;;-1.51;98.08
14612;BME280;7392;52.078;11.650;2022-11-20T10:05:18;100310.25;;;-1.50;97.51
14612;BME280;7392;52.078;11.650;2022-11-20T10:07:50;100317.22;;;-1.49;97.45
14612;BME280;7392;52.078;11.650;2022-11-20T10:10:33;100317.34;;;-1.46;98.06
14612;BME280;7392;52.078;11.650;2022-11-20T10:13:17;100315.69;;;-1.44;97.85
14612;BME280;7392;52.078;11.650;2022-11-20T10:15:57;100314.00;;;-1.42;97.84
14612;BME280;7392;52.078;11.650;2022-11-20T10:18:39;100311.47;;;-1.40;97.95
14612;BME280;7392;52.078;11.650;2022-11-20T10:21:21;100314.13;;;-1.39;97.91
14612;BME280;7392;52.078;11.650;2022-11-20T10:24:06;100313.31;;;-1.38;97.86
14612;BME280;7392;52.078;11.650;2022-11-20T10:26:43;100315.06;;;-1.37;97.73
14612;BME280;7392;52.078;11.650;2022-11-20T10:29:17;100313.44;;;-1.35;97.91
14612;BME280;7392;52.078;11.650;2022-11-20T10:31:50;100312.59;;;-1.34;97.49
14612;BME280;7392;52.078;11.650;2022-11-20T10:34:21;100310.97;;;-1.32;97.35
14612;BME280;7392;52.078;11.650;2022-11-20T10:36:54;100297.97;;;-1.30;97.10
14612;BME280;7392;52.078;11.650;2022-11-20T10:39:29;100291.88;;;-1.30;95.96
14612;BME280;7392;52.078;11.650;2022-11-20T10:42:01;100296.34;;;-1.28;96.16
14612;BME280;7392;52.078;11.650;2022-11-20T10:44:29;100295.63;;;-1.24;96.59
14612;BME280;7392;52.078;11.650;2022-11-20T10:47:22;100289.66;;;-1.21;96.66
14612;BME280;7392;52.078;11.650;2022-11-20T10:49:52;100287.19;;;-1.17;96.60
14612;BME280;7392;52.078;11.650;2022-11-20T10:52:27;100287.31;;;-1.14;96.48
14612;BME280;7392;52.078;11.650;2022-11-20T10:55:05;100283.16;;;-1.08;96.28
14612;BME280;7392;52.078;11.650;2022-11-20T10:57:48;100279.81;;;-1.04;96.69
14612;BME280;7392;52.078;11.650;2022-11-20T11:00:19;100273.03;;;-1.01;96.70
14612;BME280;7392;52.078;11.650;2022-11-20T11:02:48;100271.41;;;-0.97;96.42
14612;BME280;7392;52.078;11.650;2022-11-20T11:05:25;100263.69;;;-0.94;96.51
14612;BME280;7392;52.078;11.650;2022-11-20T11:07:58;100257.72;;;-0.91;95.67
14612;BME280;7392;52.078;11.650;2022-11-20T11:10:32;100270.94;;;-0.87;95.76
14612;BME280;7392;52.078;11.650;2022-11-20T11:13:07;100271.97;;;-0.82;95.19
14612;BME280;7392;52.078;11.650;2022-11-20T11:15:46;100271.25;;;-0.78;95.04
14612;BME280;7392;52.078;11.650;2022-11-20T11:18:24;100265.41;;;-0.70;95.21
14612;BME280;7392;52.078;11.650;2022-11-20T11:20:53;100251.34;;;-0.50;95.34
14612;BME280;7392;52.078;11.650;2022-11-20T11:23:30;100248.44;;;-0.33;95.34
14612;BME280;7392;52.078;11.650;2022-11-20T11:26:00;100240.31;;;-0.15;94.69
14612;BME280;7392;52.078;11.650;2022-11-20T11:28:30;100238.25;;;0.02;93.88
14612;BME280;7392;52.078;11.650;2022-11-20T11:30:58;100241.66;;;0.26;94.27
14612;BME280;7392;52.078;11.650;2022-11-20T11:33:27;100254.28;;;0.40;94.17
14612;BME280;7392;52.078;11.650;2022-11-20T11:35:58;100245.31;;;0.60;93.50
14612;BME280;7392;52.078;11.650;2022-11-20T11:38:29;100254.66;;;0.81;92.21
14612;BME280;7392;52.078;11.650;2022-11-20T11:40:58;100252.63;;;1.02;91.57
14612;BME280;7392;52.078;11.650;2022-11-20T11:43:30;100263.72;;;1.24;90.00
14612;BME280;7392;52.078;11.650;2022-11-20T11:46:30;100258.13;;;1.42;87.70
14612;BME280;7392;52.078;11.650;2022-11-20T11:49:00;100253.25;;;1.56;85.39
14612;BME280;7392;52.078;11.650;2022-11-20T11:51:33;100263.22;;;1.71;85.51
14612;BME280;7392;52.078;11.650;2022-11-20T11:54:08;100253.91;;;1.82;84.47
14612;BME280;7392;52.078;11.650;2022-11-20T11:56:38;100255.03;;;1.92;83.79
14612;BME280;7392;52.078;11.650;2022-11-20T11:59:12;100241.38;;;2.03;83.30
14612;BME280;7392;52.078;11.650;2022-11-20T12:01:44;100254.56;;;2.08;82.91
14612;BME280;7392;52.078;11.650;2022-11-20T12:04:21;100247.56;;;2.07;81.60
14612;BME280;7392;52.078;11.650;2022-11-20T12:07:00;100244.03;;;2.05;81.89
14612;BME280;7392;52.078;11.650;2022-11-20T12:09:53;100240.94;;;2.23;82.98
14612;BME280;7392;52.078;11.650;2022-11-20T12:12:25;100249.25;;;2.41;83.02
14612;BME280;7392;52.078;11.650;2022-11-20T12:14:57;100261.97;;;2.64;82.45
14612;BME280;7392;52.078;11.650;2022-11-20T12:17:26;100262.06;;;2.67;82.15
14612;BME280;7392;52.078;11.650;2022-11-20T12:19:56;100249.63;;;2.58;79.85
14612;BME280;7392;52.078;11.650;2022-11-20T12:22:33;100260.72;;;2.47;79.51
14612;BME280;7392;52.078;11.650;2022-11-20T12:25:11;100247.38;;;2.36;80.71
14612;BME280;7392;52.078;11.650;2022-11-20T12:27:50;100240.16;;;2.26;80.37
14612;BME280;7392;52.078;11.650;2022-11-20T12:30:24;100246.97;;;2.19;80.51
14612;BME280;7392;52.078;11.650;2022-11-20T12:33:02;100237.16;;;2.10;81.38
14612;BME280;7392;52.078;11.650;2022-11-20T12:35:44;100232.63;;;2.04;81.41
14612;BME280;7392;52.078;11.650;2022-11-20T12:38:51;100238.47;;;1.93;81.03
14612;BME280;7392;52.078;11.650;2022-11-20T12:41:33;100239.34;;;1.92;82.03
14612;BME280;7392;52.078;11.650;2022-11-20T12:44:42;100236.97;;;2.02;82.74
14612;BME280;7392;52.078;11.650;2022-11-20T12:50:43;100239.50;;;2.36;82.80
14612;BME280;7392;52.078;11.650;2022-11-20T12:53:40;100230.75;;;2.35;82.49
14612;BME280;7392;52.078;11.650;2022-11-20T12:56:20;100225.44;;;2.32;81.96
14612;BME280;7392;52.078;11.650;2022-11-20T12:59:01;100228.97;;;2.33;82.93
14612;BME280;7392;52.078;11.650;2022-11-20T13:01:39;100226.34;;;2.33;83.10
14612;BME280;7392;52.078;11.650;2022-11-20T13:04:19;100222.81;;;2.31;82.46
14612;BME280;7392;52.078;11.650;2022-11-20T13:06:54;100214.94;;;2.31;83.91
14612;BME280;7392;52.078;11.650;2022-11-20T13:09:23;100215.78;;;2.30;83.04